createdAt,value
2022-12-05T00:01:23.235Z,93892.19
2022-12-05T00:03:54.416Z,93887.72
2022-12-05T00:06:22.284Z,93893.28
2022-12-05T00:08:49.940Z,93895.09
2022-12-05T00:11:19.586Z,93896.63
2022-12-05T00:13:48.309Z,93898.38
2022-12-05T00:16:17.706Z,93897.31
2022-12-05T00:18:44.468Z,93903.13
2022-12-05T00:21:17.040Z,93900.50
2022-12-05T00:23:43.808Z,93916.06
2022-12-05T00:26:11.477Z,93915.56
2022-12-05T00:28:38.679Z,93910.84
2022-12-05T00:31:07.548Z,93904.78
2022-12-05T00:33:34.418Z,93890.53
2022-12-05T00:36:07.003Z,93908.38
2022-12-05T00:38:34.205Z,93908.16
2022-12-05T00:41:10.419Z,93923.53
2022-12-05T00:43:37.588Z,93918.88
2022-12-05T00:46:08.400Z,93938.66
2022-12-05T00:48:35.136Z,93937.13
2022-12-05T00:51:11.040Z,93945.06
2022-12-05T00:53:38.261Z,93943.44
2022-12-05T00:56:08.540Z,93953.97
2022-12-05T00:58:35.887Z,93941.31
2022-12-05T01:01:15.395Z,93946.00
2022-12-05T01:03:43.238Z,93961.84
2022-12-05T01:06:10.802Z,93962.41
2022-12-05T01:08:37.493Z,93976.44
2022-12-05T01:11:06.407Z,93982.59
2022-12-05T01:13:33.881Z,93979.25
2022-12-05T01:16:01.108Z,93975.25
2022-12-05T01:18:28.801Z,93970.22
2022-12-05T01:20:55.566Z,93981.03
2022-12-05T01:23:23.160Z,93991.59
2022-12-05T01:25:52.441Z,93987.66
2022-12-05T01:28:19.711Z,93997.91
2022-12-05T01:30:48.609Z,94009.53
2022-12-05T01:33:17.151Z,94004.78
2022-12-05T01:35:44.632Z,94024.56
2022-12-05T01:38:13.081Z,94022.72
2022-12-05T01:40:40.745Z,94021.13
2022-12-05T01:43:25.576Z,94018.53
2022-12-05T01:45:52.329Z,94018.78
2022-12-05T01:48:23.839Z,94028.28
2022-12-05T01:50:51.135Z,94021.72
2022-12-05T01:53:19.008Z,94033.91
2022-12-05T01:55:48.598Z,94035.19
2022-12-05T01:58:16.096Z,94023.63
2022-12-05T02:00:44.047Z,94021.19
2022-12-05T02:03:18.480Z,94016.13
2022-12-05T02:05:48.767Z,94008.19
2022-12-05T02:08:16.153Z,94012.69
2022-12-05T02:10:49.708Z,94012.69
2022-12-05T02:13:52.068Z,94004.16
2022-12-05T02:16:37.036Z,94026.88
2022-12-05T02:19:31.704Z,94042.22
2022-12-05T02:22:05.872Z,94049.47
2022-12-05T02:24:47.789Z,94060.06
2022-12-05T02:27:29.817Z,94057.19
2022-12-05T02:30:05.478Z,94068.03
2022-12-05T02:33:08.971Z,94071.50
2022-12-05T02:35:38.704Z,94074.13
2022-12-05T02:38:21.733Z,94084.44
2022-12-05T02:41:17.056Z,94072.56
2022-12-05T02:44:14.164Z,94080.75
2022-12-05T02:46:42.801Z,94075.72
2022-12-05T02:49:13.162Z,94053.06
2022-12-05T02:51:47.174Z,94069.66
2022-12-05T02:54:19.654Z,94072.50
2022-12-05T02:56:47.308Z,94060.34
2022-12-05T02:59:18.491Z,94022.41
2022-12-05T03:01:49.849Z,94062.38
2022-12-05T03:04:19.083Z,94046.53
2022-12-05T03:06:51.141Z,94058.44
2022-12-05T03:09:26.440Z,94072.91
2022-12-05T03:12:01.736Z,94067.69
2022-12-05T03:14:40.710Z,94059.00
2022-12-05T03:17:13.581Z,94074.03
2022-12-05T03:19:52.243Z,94067.19
2022-12-05T03:22:26.464Z,94056.91
2022-12-05T03:24:53.800Z,94069.03
2022-12-05T03:27:26.651Z,94077.47
2022-12-05T03:29:58.506Z,94073.00
2022-12-05T03:32:53.668Z,94081.94
2022-12-05T03:35:29.340Z,94081.38
2022-12-05T03:38:20.834Z,94069.47
2022-12-05T03:41:07.833Z,94081.06
2022-12-05T03:43:56.342Z,94081.63
2022-12-05T03:46:32.733Z,94075.03
2022-12-05T03:49:15.748Z,94072.94
2022-12-05T03:51:59.210Z,94063.94
2022-12-05T03:54:49.614Z,94072.91
2022-12-05T03:57:37.617Z,94075.28
2022-12-05T04:00:09.797Z,94078.94
2022-12-05T04:02:52.423Z,94077.59
2022-12-05T04:05:41.542Z,94082.09
2022-12-05T04:08:17.900Z,94084.22
2022-12-05T04:10:51.021Z,94079.75
2022-12-05T04:13:29.763Z,94085.81
2022-12-05T04:16:23.285Z,94083.47
2022-12-05T04:19:05.244Z,94104.53
2022-12-05T04:21:39.916Z,94097.19
2022-12-05T04:24:34.660Z,94099.31
2022-12-05T04:27:12.353Z,94095.66
2022-12-05T04:30:10.447Z,94103.81
2022-12-05T04:32:52.307Z,94108.59
2022-12-05T04:35:34.594Z,94106.22
2022-12-05T04:38:10.650Z,94103.56
2022-12-05T04:41:05.526Z,94109.84
2022-12-05T04:43:36.972Z,94097.50
2022-12-05T04:46:08.246Z,94107.53
2022-12-05T04:48:39.236Z,94099.84
2022-12-05T04:51:09.424Z,94108.00
2022-12-05T04:53:36.459Z,94100.59
2022-12-05T04:56:04.891Z,94091.88
2022-12-05T04:58:32.449Z,94101.63
2022-12-05T05:01:20.100Z,94101.91
2022-12-05T05:03:55.667Z,94113.25
2022-12-05T05:06:22.334Z,94105.88
2022-12-05T05:08:54.733Z,94123.28
2022-12-05T05:11:22.984Z,94120.91
2022-12-05T05:13:49.953Z,94115.63
2022-12-05T05:16:25.267Z,94120.66
2022-12-05T05:18:53.001Z,94121.72
2022-12-05T05:21:22.637Z,94119.34
2022-12-05T05:23:50.111Z,94132.00
2022-12-05T05:26:17.227Z,94109.34
2022-12-05T05:28:44.074Z,94124.88
2022-12-05T05:31:11.067Z,94127.75
2022-12-05T05:33:38.195Z,94121.91
2022-12-05T05:36:07.296Z,94129.06
2022-12-05T05:38:38.687Z,94128.50
2022-12-05T05:41:06.191Z,94125.91
2022-12-05T05:43:32.904Z,94116.97
2022-12-05T05:45:59.584Z,94121.97
2022-12-05T05:48:26.201Z,94123.81
2022-12-05T05:50:52.840Z,94115.63
2022-12-05T05:53:19.466Z,94123.78
2022-12-05T05:55:46.149Z,94144.91
2022-12-05T05:58:12.763Z,94117.25
2022-12-05T06:00:39.417Z,94143.59
2022-12-05T06:03:06.240Z,94140.69
2022-12-05T06:05:33.073Z,94148.59
2022-12-05T06:07:59.808Z,94148.34
2022-12-05T06:10:26.490Z,94145.19
2022-12-05T06:12:53.126Z,94159.44
2022-12-05T06:15:19.768Z,94156.28
2022-12-05T06:17:46.434Z,94153.13
2022-12-05T06:20:13.475Z,94162.09
2022-12-05T06:22:40.143Z,94154.19
2022-12-05T06:25:07.678Z,94158.94
2022-12-05T06:27:34.828Z,94158.94
2022-12-05T06:30:01.608Z,94170.56
2022-12-05T06:32:29.976Z,94176.63
2022-12-05T06:34:56.760Z,94172.66
2022-12-05T06:37:23.429Z,94174.25
2022-12-05T06:39:51.469Z,94170.28
2022-12-05T06:42:18.067Z,94172.13
2022-12-05T06:44:44.711Z,94173.19
2022-12-05T06:47:11.352Z,94187.16
2022-12-05T06:49:38.409Z,94183.47
2022-12-05T06:52:05.197Z,94189.28
2022-12-05T06:54:31.890Z,94191.13
2022-12-05T06:56:58.522Z,94198.50
2022-12-05T06:59:25.218Z,94197.97
2022-12-05T07:01:51.969Z,94189.00
2022-12-05T07:04:24.872Z,94204.25
2022-12-05T07:06:53.226Z,94214.28
2022-12-05T07:09:46.002Z,94217.97
2022-12-05T07:12:14.568Z,94211.44
2022-12-05T07:14:49.890Z,94226.69
2022-12-05T07:17:21.533Z,94240.16
2022-12-05T07:19:51.994Z,94232.47
2022-12-05T07:22:20.539Z,94234.84
2022-12-05T07:24:48.059Z,94234.09
2022-12-05T07:27:15.673Z,94242.25
2022-12-05T07:29:42.398Z,94238.03
2022-12-05T07:32:09.352Z,94240.94
2022-12-05T07:34:36.149Z,94240.94
2022-12-05T07:37:02.755Z,94247.03
2022-12-05T07:39:29.495Z,94245.16
2022-12-05T07:41:56.142Z,94234.88
2022-12-05T07:44:22.818Z,94245.94
2022-12-05T07:46:49.498Z,94249.38
2022-12-05T07:49:16.325Z,94250.13
2022-12-05T07:51:42.981Z,94245.09
2022-12-05T07:54:09.642Z,94231.09
2022-12-05T07:56:36.282Z,94228.44
2022-12-05T07:59:02.964Z,94229.75
2022-12-05T08:01:30.233Z,94238.22
2022-12-05T08:03:58.748Z,94241.63
2022-12-05T08:06:28.268Z,94237.41
2022-12-05T08:08:55.943Z,94237.41
2022-12-05T08:11:26.665Z,94233.72
2022-12-05T08:13:53.850Z,94225.03
2022-12-05T08:16:23.810Z,94243.16
2022-12-05T08:18:58.367Z,94244.47
2022-12-05T08:21:25.394Z,94249.22
2022-12-05T08:23:53.059Z,94252.91
2022-12-05T08:26:24.418Z,94250.03
2022-12-05T08:28:53.364Z,94264.25
2022-12-05T08:31:24.297Z,94274.28
2022-12-05T08:33:57.189Z,94269.25
2022-12-05T08:36:27.121Z,94278.97
2022-12-05T08:39:02.002Z,94270.25
2022-12-05T08:41:30.266Z,94266.28
2022-12-05T08:43:58.978Z,94260.16
2022-12-05T08:46:26.065Z,94263.47
2022-12-05T08:48:52.847Z,94276.16
2022-12-05T08:51:19.557Z,94279.06
2022-12-05T08:53:46.316Z,94265.34
2022-12-05T08:56:13.393Z,94281.41
2022-12-05T08:58:41.157Z,94279.84
2022-12-05T09:01:20.383Z,94285.63
2022-12-05T09:03:48.376Z,94295.44
2022-12-05T09:06:16.251Z,94294.66
2022-12-05T09:08:44.268Z,94300.22
2022-12-05T09:11:13.300Z,94297.56
2022-12-05T09:13:40.948Z,94309.41
2022-12-05T09:16:13.750Z,94309.13
2022-12-05T09:18:40.630Z,94306.78
2022-12-05T09:21:09.408Z,94310.72
2022-12-05T09:23:37.996Z,94311.50
2022-12-05T09:26:06.398Z,94313.59
2022-12-05T09:28:34.096Z,94324.66
2022-12-05T09:31:04.173Z,94325.72
2022-12-05T09:33:32.824Z,94329.91
2022-12-05T09:35:59.646Z,94332.09
2022-12-05T09:38:26.270Z,94331.00
2022-12-05T09:41:45.164Z,94327.53
2022-12-05T09:44:24.334Z,94335.97
2022-12-05T09:47:05.849Z,94338.84
2022-12-05T09:49:34.877Z,94335.66
2022-12-05T09:52:03.786Z,94321.13
2022-12-05T09:54:32.729Z,94321.59
2022-12-05T09:57:00.085Z,94328.66
2022-12-05T09:59:26.782Z,94326.00
2022-12-05T10:02:07.379Z,94323.31
2022-12-05T10:04:46.347Z,94326.22
2022-12-05T10:07:12.954Z,94325.94
2022-12-05T10:10:20.306Z,94322.50
2022-12-05T10:13:03.084Z,94308.78
2022-12-05T10:15:35.504Z,94307.41
2022-12-05T10:18:07.989Z,94314.00
2022-12-05T10:20:46.991Z,94314.28
2022-12-05T10:23:56.000Z,94309.78
2022-12-05T10:26:17.053Z,94296.28
2022-12-05T10:29:09.395Z,94295.66
2022-12-05T10:31:38.486Z,94297.94
2022-12-05T10:34:17.504Z,94298.47
2022-12-05T10:37:05.551Z,94303.38
2022-12-05T10:39:32.215Z,94310.84
2022-12-05T10:41:59.440Z,94309.59
2022-12-05T10:44:26.215Z,94321.53
2022-12-05T10:46:52.954Z,94312.53
2022-12-05T10:49:21.106Z,94284.22
2022-12-05T10:51:49.144Z,94306.06
2022-12-05T10:54:22.333Z,94310.19
2022-12-05T10:56:51.023Z,94314.66
2022-12-05T10:59:20.440Z,94303.72
2022-12-05T11:01:52.399Z,94297.81
2022-12-05T11:04:28.621Z,94295.38
2022-12-05T11:07:05.820Z,94292.19
2022-12-05T11:09:35.951Z,94291.31
2022-12-05T11:12:14.673Z,94296.38
2022-12-05T11:14:54.263Z,94305.75
2022-12-05T11:17:38.782Z,94300.50
2022-12-05T11:20:17.667Z,94299.44
2022-12-05T11:22:48.886Z,94296.28
2022-12-05T11:25:36.626Z,94299.94
2022-12-05T11:28:21.785Z,94298.31
2022-12-05T11:31:06.901Z,94300.91
2022-12-05T11:33:35.937Z,94299.75
2022-12-05T11:36:19.457Z,94295.03
2022-12-05T11:38:46.786Z,94284.28
2022-12-05T11:41:36.251Z,94305.63
2022-12-05T11:44:18.091Z,94309.84
2022-12-05T11:47:23.812Z,94302.97
2022-12-05T11:50:09.002Z,94305.56
2022-12-05T11:53:09.816Z,94304.22
2022-12-05T11:55:47.218Z,94306.03
2022-12-05T11:58:41.999Z,94312.63
2022-12-05T12:01:25.660Z,94315.00
2022-12-05T12:04:24.154Z,94305.47
2022-12-05T12:07:06.666Z,94304.84
2022-12-05T12:09:42.365Z,94301.63
2022-12-05T12:12:33.254Z,94294.69
2022-12-05T12:15:24.975Z,94298.19
2022-12-05T12:18:08.536Z,94290.75
2022-12-05T12:20:42.136Z,94298.75
2022-12-05T12:23:49.616Z,94303.28
2022-12-05T12:26:38.650Z,94304.22
2022-12-05T12:29:18.940Z,94303.97
2022-12-05T12:32:04.595Z,94306.69
2022-12-05T12:34:40.316Z,94309.06
2022-12-05T12:37:38.957Z,94306.91
2022-12-05T12:40:31.972Z,94305.50
2022-12-05T12:43:30.961Z,94305.34
2022-12-05T12:46:19.048Z,94314.25
2022-12-05T12:49:07.523Z,94321.13
2022-12-05T12:51:34.612Z,94323.63
2022-12-05T12:54:10.374Z,94325.47
2022-12-05T12:57:08.169Z,94317.28
2022-12-05T12:59:51.008Z,94319.66
2022-12-05T13:02:35.435Z,94319.66
2022-12-05T13:05:08.616Z,94313.84
2022-12-05T13:07:48.971Z,94310.81
2022-12-05T13:10:35.990Z,94303.50
2022-12-05T13:13:05.065Z,94302.53
2022-12-05T13:15:36.157Z,94294.13
2022-12-05T13:18:06.314Z,94288.97
2022-12-05T13:20:35.877Z,94294.41
2022-12-05T13:23:07.932Z,94303.38
2022-12-05T13:25:36.334Z,94292.97
2022-12-05T13:28:25.923Z,94287.97
2022-12-05T13:31:01.718Z,94287.31
2022-12-05T13:33:50.216Z,94293.31
2022-12-05T13:36:41.075Z,94282.72
2022-12-05T13:39:39.425Z,94289.78
2022-12-05T13:42:21.080Z,94296.38
2022-12-05T13:45:05.911Z,94300.44
2022-12-05T13:47:35.306Z,94308.41
2022-12-05T13:50:16.034Z,94301.75
2022-12-05T13:52:49.502Z,94296.22
2022-12-05T13:55:56.177Z,94301.97
2022-12-05T13:58:22.739Z,94300.28
2022-12-05T14:00:53.126Z,94293.78
2022-12-05T14:03:35.061Z,94307.66
2022-12-05T14:06:01.719Z,94293.59
2022-12-05T14:08:31.626Z,94301.72
2022-12-05T14:10:58.214Z,94309.97
2022-12-05T14:13:25.420Z,94309.63
2022-12-05T14:15:54.640Z,94304.16
2022-12-05T14:18:46.131Z,94299.81
2022-12-05T14:21:37.395Z,94304.03
2022-12-05T14:24:23.041Z,94299.03
2022-12-05T14:27:07.551Z,94299.66
2022-12-05T14:29:59.594Z,94315.31
2022-12-05T14:32:38.908Z,94311.28
2022-12-05T14:35:15.586Z,94312.06
2022-12-05T14:37:54.415Z,94301.00
2022-12-05T14:40:36.811Z,94302.44
2022-12-05T14:43:22.399Z,94306.94
2022-12-05T14:45:51.915Z,94310.75
2022-12-05T14:48:30.912Z,94310.31
2022-12-05T14:50:59.086Z,94312.22
2022-12-05T14:53:33.929Z,94314.38
2022-12-05T14:56:00.585Z,94318.66
2022-12-05T14:58:56.965Z,94319.25
2022-12-05T15:01:44.534Z,94325.16
2022-12-05T15:04:33.273Z,94328.38
2022-12-05T15:07:05.502Z,94332.72
2022-12-05T15:09:49.428Z,94327.19
2022-12-05T15:12:41.973Z,94333.31
2022-12-05T15:15:34.920Z,94345.50
2022-12-05T15:18:31.251Z,94336.72
2022-12-05T15:21:04.053Z,94333.28
2022-12-05T15:23:47.019Z,94335.84
2022-12-05T15:26:44.777Z,94339.53
2022-12-05T15:29:14.881Z,94339.81
2022-12-05T15:31:47.713Z,94344.31
2022-12-05T15:34:36.211Z,94341.91
2022-12-05T15:37:12.754Z,94338.72
2022-12-05T15:39:52.683Z,94338.50
2022-12-05T15:42:24.822Z,94343.59
2022-12-05T15:45:20.086Z,94344.47
2022-12-05T15:47:49.311Z,94348.97
2022-12-05T15:50:39.089Z,94359.91
2022-12-05T15:53:14.308Z,94353.59
2022-12-05T15:55:47.286Z,94354.94
2022-12-05T15:58:39.210Z,94356.03
2022-12-05T16:01:20.460Z,94358.16
2022-12-05T16:03:55.564Z,94363.97
2022-12-05T16:06:38.086Z,94366.06
2022-12-05T16:09:14.257Z,94359.47
2022-12-05T16:11:51.365Z,94366.84
2022-12-05T16:14:37.276Z,94360.75
2022-12-05T16:17:07.326Z,94361.03
2022-12-05T16:19:34.176Z,94356.56
2022-12-05T16:22:20.841Z,94356.63
2022-12-05T16:24:55.416Z,94348.94
2022-12-05T16:27:28.806Z,94355.03
2022-12-05T16:30:14.451Z,94347.31
2022-12-05T16:32:42.152Z,94354.19
2022-12-05T16:35:32.503Z,94344.13
2022-12-05T16:38:32.675Z,94352.34
2022-12-05T16:41:09.142Z,94355.78
2022-12-05T16:43:35.827Z,94357.88
2022-12-05T16:46:11.843Z,94356.56
2022-12-05T16:48:47.570Z,94348.16
2022-12-05T16:51:14.380Z,94349.72
2022-12-05T16:53:52.326Z,94355.59
2022-12-05T16:56:27.920Z,94353.47
2022-12-05T16:58:54.606Z,94350.56
2022-12-05T17:01:24.035Z,94348.44
2022-12-05T17:03:51.346Z,94345.22
2022-12-05T17:06:27.093Z,94348.16
2022-12-05T17:08:54.984Z,94340.44
2022-12-05T17:11:28.231Z,94338.31
2022-12-05T17:13:56.849Z,94335.38
2022-12-05T17:16:23.664Z,94339.09
2022-12-05T17:18:50.373Z,94334.88
2022-12-05T17:21:19.964Z,94334.13
2022-12-05T17:23:48.544Z,94331.75
2022-12-05T17:26:17.879Z,94327.47
2022-12-05T17:28:44.978Z,94341.78
2022-12-05T17:31:23.079Z,94336.22
2022-12-05T17:33:51.645Z,94337.78
2022-12-05T17:36:21.072Z,94348.91
2022-12-05T17:38:48.095Z,94340.44
2022-12-05T17:41:17.499Z,94346.28
2022-12-05T17:43:45.914Z,94355.19
2022-12-05T17:46:17.166Z,94353.03
2022-12-05T17:48:43.819Z,94359.47
2022-12-05T17:51:14.621Z,94361.09
2022-12-05T17:53:42.872Z,94365.38
2022-12-05T17:56:09.568Z,94362.00
2022-12-05T17:58:36.434Z,94373.09
2022-12-05T18:01:03.977Z,94360.44
2022-12-05T18:03:30.699Z,94363.34
2022-12-05T18:05:57.550Z,94366.00
2022-12-05T18:08:24.763Z,94366.28
2022-12-05T18:10:51.819Z,94375.53
2022-12-05T18:13:18.645Z,94360.94
2022-12-05T18:15:48.054Z,94365.44
2022-12-05T18:18:17.729Z,94369.09
2022-12-05T18:20:44.463Z,94370.97
2022-12-05T18:23:11.555Z,94371.28
2022-12-05T18:25:39.234Z,94370.50
2022-12-05T18:28:05.971Z,94376.06
2022-12-05T18:30:32.796Z,94375.56
2022-12-05T18:32:59.534Z,94372.41
2022-12-05T18:35:41.560Z,94373.97
2022-12-05T18:38:10.546Z,94375.59
2022-12-05T18:40:37.541Z,94379.84
2022-12-05T18:43:04.433Z,94386.72
2022-12-05T18:45:31.181Z,94381.19
2022-12-05T18:48:09.957Z,94384.41
2022-12-05T18:50:44.939Z,94387.34
2022-12-05T18:53:11.554Z,94383.91
2022-12-05T18:55:58.346Z,94398.72
2022-12-05T18:58:24.784Z,94396.09
2022-12-05T19:00:51.506Z,94401.66
2022-12-05T19:03:18.225Z,94402.19
2022-12-05T19:05:44.878Z,94394.00
2022-12-05T19:08:11.585Z,94399.84
2022-12-05T19:10:38.328Z,94400.94
2022-12-05T19:13:04.972Z,94399.06
2022-12-05T19:15:31.691Z,94398.81
2022-12-05T19:17:58.349Z,94392.19
2022-12-05T19:20:24.988Z,94390.31
2022-12-05T19:22:54.132Z,94394.81
2022-12-05T19:25:23.041Z,94397.47
2022-12-05T19:27:49.706Z,94405.94
2022-12-05T19:30:16.475Z,94404.09
2022-12-05T19:32:43.222Z,94411.53
2022-12-05T19:35:10.329Z,94414.16
2022-12-05T19:37:37.023Z,94416.81
2022-12-05T19:40:03.902Z,94405.94
2022-12-05T19:42:31.136Z,94402.75
2022-12-05T19:44:58.645Z,94395.88
2022-12-05T19:47:27.676Z,94405.94
2022-12-05T19:49:54.345Z,94408.59
2022-12-05T19:52:21.150Z,94407.00
2022-12-05T19:54:47.882Z,94415.47
2022-12-05T19:57:14.609Z,94407.25
2022-12-05T19:59:41.221Z,94406.72
2022-12-05T20:02:08.001Z,94403.00
2022-12-05T20:04:34.869Z,94398.53
2022-12-05T20:07:01.504Z,94395.88
2022-12-05T20:09:28.188Z,94399.34
2022-12-05T20:11:56.019Z,94398.84
2022-12-05T20:14:24.876Z,94402.50
2022-12-05T20:16:52.452Z,94408.88
2022-12-05T20:19:19.189Z,94403.31
2022-12-05T20:21:45.832Z,94405.69
2022-12-05T20:24:12.533Z,94397.47
2022-12-05T20:26:42.274Z,94400.66
2022-12-05T20:29:10.215Z,94391.94
2022-12-05T20:31:42.238Z,94392.19
2022-12-05T20:34:13.335Z,94386.41
2022-12-05T20:36:40.025Z,94380.81
2022-12-05T20:39:10.443Z,94378.97
2022-12-05T20:41:37.163Z,94380.03
2022-12-05T20:44:08.559Z,94377.91
2022-12-05T20:46:36.942Z,94377.38
2022-12-05T20:49:04.044Z,94389.28
2022-12-05T20:51:33.963Z,94380.34
2022-12-05T20:54:03.281Z,94387.69
2022-12-05T20:56:32.181Z,94393.50
2022-12-05T20:59:02.029Z,94385.31
2022-12-05T21:01:31.287Z,94385.03
2022-12-05T21:03:58.270Z,94386.09
2022-12-05T21:06:30.549Z,94391.91
2022-12-05T21:08:58.981Z,94389.53
2022-12-05T21:11:27.599Z,94387.69
2022-12-05T21:14:00.278Z,94381.31
2022-12-05T21:16:27.565Z,94379.47
2022-12-05T21:18:56.015Z,94377.59
2022-12-05T21:21:24.866Z,94385.53
2022-12-05T21:23:55.494Z,94380.53
2022-12-05T21:26:24.100Z,94376.56
2022-12-05T21:28:51.489Z,94375.25
2022-12-05T21:31:21.646Z,94372.09
2022-12-05T21:33:54.470Z,94365.31
2022-12-05T21:36:22.829Z,94369.84
2022-12-05T21:38:54.133Z,94371.78
2022-12-05T21:41:22.876Z,94374.72
2022-12-05T21:43:54.136Z,94367.31
2022-12-05T21:46:21.729Z,94372.88
2022-12-05T21:48:48.494Z,94367.09
2022-12-05T21:51:15.286Z,94369.75
2022-12-05T21:53:42.132Z,94368.72
2022-12-05T21:56:11.597Z,94374.53
2022-12-05T21:58:42.272Z,94365.00
2022-12-05T22:01:10.908Z,94371.63
2022-12-05T22:03:38.317Z,94372.41
2022-12-05T22:06:10.155Z,94378.22
2022-12-05T22:08:38.301Z,94380.09
2022-12-05T22:11:05.892Z,94375.06
2022-12-05T22:13:33.235Z,94374.28
2022-12-05T22:16:00.477Z,94380.09
2022-12-05T22:18:28.216Z,94383.56
2022-12-05T22:20:59.975Z,94374.34
2022-12-05T22:23:27.259Z,94387.31
2022-12-05T22:25:58.012Z,94382.56
2022-12-05T22:28:24.667Z,94372.78
2022-12-05T22:30:51.460Z,94377.81
2022-12-05T22:33:18.117Z,94376.00
2022-12-05T22:35:50.761Z,94382.38
2022-12-05T22:38:19.034Z,94378.94
2022-12-05T22:40:46.111Z,94377.34
2022-12-05T22:43:12.921Z,94382.63
2022-12-05T22:45:39.611Z,94376.81
2022-12-05T22:48:06.346Z,94377.63
2022-12-05T22:50:32.977Z,94378.16
2022-12-05T22:52:59.704Z,94372.88
2022-12-05T22:55:26.334Z,94373.66
2022-12-05T22:57:52.951Z,94366.78
2022-12-05T23:00:20.212Z,94368.38
2022-12-05T23:02:47.028Z,94366.25
2022-12-05T23:05:13.950Z,94366.25
2022-12-05T23:07:40.749Z,94373.13
2022-12-05T23:10:08.086Z,94362.56
2022-12-05T23:12:34.807Z,94356.75
2022-12-05T23:15:01.521Z,94363.88
2022-12-05T23:17:29.618Z,94361.22
2022-12-05T23:19:56.454Z,94361.97
2022-12-05T23:22:23.338Z,94365.66
2022-12-05T23:24:50.050Z,94370.66
2022-12-05T23:27:19.721Z,94375.66
2022-12-05T23:29:46.526Z,94377.22
2022-12-05T23:32:13.449Z,94372.75
2022-12-05T23:34:40.180Z,94373.28
2022-12-05T23:37:06.900Z,94374.38
2022-12-05T23:39:33.744Z,94367.84
2022-12-05T23:42:00.508Z,94372.59
2022-12-05T23:44:27.305Z,94376.31
2022-12-05T23:46:54.894Z,94369.16
2022-12-05T23:49:21.616Z,94366.78
2022-12-05T23:51:49.656Z,94368.63
2022-12-05T23:54:16.568Z,94373.66
2022-12-05T23:56:43.281Z,94374.44
2022-12-05T23:59:10.047Z,94384.22
